Time;durP1;ratioP1;P1;durP2;ratioP2;P2;SDS_P1;SDS_P2;PMS_P1;PMS_P2;Temp;Humidity;BMP_temperature;BMP_pressure;BME280_temperature;BME280_humidity;BME280_pressure;Samples;Min_cycle;Max_cycle;Signal;HPM_P1;HPM_P2
2022/08/11 00:00:37;;;;;;;;;;;;;;;12.96;84.75;93529.09;2122954;27;19994;-70
2022/08/11 00:01:42;;;;;;;;;;;;;;;12.92;84.14;93525.75;2123898;27;19964;-69
2022/08/11 00:02:49;;;;;;;;;;;;;;;12.87;85.24;93528.94;2123912;27;19962;-70
2022/08/11 00:03:55;;;;;;;;;;;;;;;12.89;84.37;93529.25;2120258;27;19923;-70
2022/08/11 00:05:00;;;;;;;;;;;;;;;12.85;84.22;93529.34;2123780;27;19912;-70
2022/08/11 00:06:02;;;;;;;;;;;;;;;12.85;83.90;93524.72;2122905;27;19930;-70
2022/08/11 00:07:03;;;;;;;;;;;;;;;12.91;83.88;93522.31;2123830;27;20352;-70
2022/08/11 00:08:05;;;;;;;;;;;;;;;12.93;84.09;93519.94;2123745;27;19922;-70
2022/08/11 00:09:15;;;;;;;;;;;;;;;12.94;83.94;93521.44;2123796;27;19960;-72
2022/08/11 00:10:17;;;;;;;;;;;;;;;13.05;82.83;93513.16;2123703;27;19922;-70
2022/08/11 00:11:19;;;;;;;;;;;;;;;13.07;82.90;93513.47;2119042;27;19961;-71
2022/08/11 00:12:20;;;;;;;;;;;;;;;13.14;82.51;93520.59;2123701;27;20364;-71
2022/08/11 00:13:21;;;;;;;;;;;;;;;13.24;80.79;93514.22;2123843;27;19919;-70
2022/08/11 00:14:24;;;;;;;;;;;;;;;13.23;81.84;93515.41;2123538;27;19959;-71
2022/08/11 00:15:26;;;;;;;;;;;;;;;13.22;80.97;93520.03;2123580;27;19956;-70
2022/08/11 00:16:27;;;;;;;;;;;;;;;13.24;79.93;93511.53;2122390;27;19918;-72
2022/08/11 00:17:30;;;;;;;;;;;;;;;13.37;79.86;93516.97;2122980;27;19915;-71
2022/08/11 00:18:39;;;;;;;;;;;;;;;13.49;78.85;93516.28;2123688;27;19915;-71
2022/08/11 00:19:42;;;;;;;;;;;;;;;13.46;79.18;93512.50;2123617;27;19918;-70
2022/08/11 00:20:44;;;;;;;;;;;;;;;13.39;79.72;93515.38;2122715;27;19907;-70
2022/08/11 00:21:45;;;;;;;;;;;;;;;13.37;79.70;93511.59;2122297;27;19954;-72
2022/08/11 00:22:46;;;;;;;;;;;;;;;13.34;79.45;93521.25;2124005;27;19911;-70
2022/08/11 00:23:55;;;;;;;;;;;;;;;13.28;80.93;93510.28;2115454;28;19922;-70
2022/08/11 00:24:56;;;;;;;;;;;;;;;13.37;79.89;93515.03;2123873;27;19916;-70
2022/08/11 00:25:57;;;;;;;;;;;;;;;13.38;79.95;93518.47;2123821;27;19955;-72
2022/08/11 00:26:59;;;;;;;;;;;;;;;13.32;80.33;93515.56;2122993;27;19911;-71
2022/08/11 00:28:00;;;;;;;;;;;;;;;13.36;80.22;93516.22;2122889;27;20021;-70
2022/08/11 00:29:10;;;;;;;;;;;;;;;13.35;80.15;93515.47;2123081;27;19924;-71
2022/08/11 00:30:14;;;;;;;;;;;;;;;13.34;80.23;93508.59;2123549;27;19916;-70
2022/08/11 00:31:21;;;;;;;;;;;;;;;13.30;81.07;93512.53;2123592;27;19913;-70
2022/08/11 00:32:21;;;;;;;;;;;;;;;13.33;80.12;93509.00;2119322;27;19915;-73
2022/08/11 00:33:25;;;;;;;;;;;;;;;13.34;79.88;93507.81;2123553;27;19911;-70
2022/08/11 00:34:28;;;;;;;;;;;;;;;13.32;80.35;93510.19;2123657;27;19911;-70
2022/08/11 00:35:30;;;;;;;;;;;;;;;13.40;79.96;93516.13;2123508;27;19911;-70
2022/08/11 00:36:57;;;;;;;;;;;;;;;13.33;80.21;93517.06;2123321;27;19938;-70
2022/08/11 00:37:58;;;;;;;;;;;;;;;13.35;80.70;93515.47;2082451;28;20107;-72
2022/08/11 00:39:03;;;;;;;;;;;;;;;13.20;81.42;93521.59;2120519;27;19918;-70
2022/08/11 00:40:08;;;;;;;;;;;;;;;13.24;81.72;93522.28;2123498;27;19919;-70
2022/08/11 00:41:10;;;;;;;;;;;;;;;13.19;81.75;93520.09;2123427;27;19953;-70
2022/08/11 00:42:22;;;;;;;;;;;;;;;13.18;81.90;93523.97;2123531;27;20011;-70
2022/08/11 00:43:42;;;;;;;;;;;;;;;13.15;83.22;93520.16;2119570;27;19920;-71
2022/08/11 00:44:45;;;;;;;;;;;;;;;13.08;83.25;93523.81;2123591;27;19912;-73
2022/08/11 00:46:09;;;;;;;;;;;;;;;13.04;84.40;93527.75;2118942;27;19994;-70
2022/08/11 00:47:16;;;;;;;;;;;;;;;13.07;84.00;93516.91;2088551;28;20255;-72
2022/08/11 00:48:27;;;;;;;;;;;;;;;13.07;83.99;93518.84;2114840;27;20368;-70
2022/08/11 00:49:44;;;;;;;;;;;;;;;12.92;85.03;93520.38;2123566;27;20006;-70
2022/08/11 00:51:03;;;;;;;;;;;;;;;12.90;86.22;93518.09;2122759;27;19911;-70
2022/08/11 00:52:13;;;;;;;;;;;;;;;12.73;86.08;93521.94;2121211;27;19915;-70
2022/08/11 00:53:26;;;;;;;;;;;;;;;12.79;86.37;93520.28;2123368;27;19911;-71
2022/08/11 00:54:35;;;;;;;;;;;;;;;12.84;87.05;93519.78;2123282;27;19923;-72
2022/08/11 00:55:45;;;;;;;;;;;;;;;12.84;86.12;93522.47;2123393;27;19911;-70
2022/08/11 00:56:48;;;;;;;;;;;;;;;12.79;86.92;93520.28;2123246;27;19915;-69
2022/08/11 00:58:01;;;;;;;;;;;;;;;12.81;86.91;93524.03;2119530;27;20253;-70
2022/08/11 00:59:11;;;;;;;;;;;;;;;12.78;86.04;93522.22;2122894;27;19937;-70
2022/08/11 01:00:17;;;;;;;;;;;;;;;12.73;87.17;93520.03;2123287;27;19984;-71
2022/08/11 01:01:33;;;;;;;;;;;;;;;12.75;86.57;93522.31;2119492;27;20226;-70
2022/08/11 01:02:52;;;;;;;;;;;;;;;12.75;86.67;93523.06;2122608;27;19916;-70
2022/08/11 01:04:12;;;;;;;;;;;;;;;12.75;86.05;93520.38;2122010;27;19919;-70
2022/08/11 01:05:32;;;;;;;;;;;;;;;12.66;86.70;93520.19;2123294;27;19939;-70
2022/08/11 01:06:51;;;;;;;;;;;;;;;12.58;88.03;93521.53;2121392;27;19915;-72
2022/08/11 01:08:00;;;;;;;;;;;;;;;12.55;87.71;93520.44;2119826;27;19926;-70
2022/08/11 01:09:23;;;;;;;;;;;;;;;12.45;88.86;93518.75;2123313;27;19918;-71
2022/08/11 01:10:45;;;;;;;;;;;;;;;12.34;91.09;93523.59;2121901;27;19967;-72
2022/08/11 01:12:03;;;;;;;;;;;;;;;12.22;91.37;93521.56;2123123;27;20019;-70
2022/08/11 01:13:13;;;;;;;;;;;;;;;12.14;92.28;93520.22;2121661;27;20309;-70
2022/08/11 01:14:53;;;;;;;;;;;;;;;12.22;91.47;93521.56;2122614;27;19934;-70
2022/08/11 01:16:08;;;;;;;;;;;;;;;12.33;90.88;93522.84;2088324;28;19958;-70
2022/08/11 01:17:25;;;;;;;;;;;;;;;12.29;90.81;93519.50;2088414;28;19969;-70
2022/08/11 01:18:32;;;;;;;;;;;;;;;12.22;91.22;93518.91;2085838;28;20031;-72
2022/08/11 01:19:35;;;;;;;;;;;;;;;12.15;92.29;93524.41;2088473;28;20305;-70
2022/08/11 01:20:36;;;;;;;;;;;;;;;12.18;91.66;93521.66;2085098;28;19975;-70
2022/08/11 01:21:55;;;;;;;;;;;;;;;12.24;90.89;93519.22;2106735;27;20754;-73
2022/08/11 01:23:12;;;;;;;;;;;;;;;12.16;91.31;93524.00;2120284;27;19911;-70
2022/08/11 01:24:36;;;;;;;;;;;;;;;12.19;91.40;93514.34;2123189;27;20007;-70
2022/08/11 01:25:55;;;;;;;;;;;;;;;12.07;92.81;93516.53;2120808;27;20273;-72
2022/08/11 01:27:08;;;;;;;;;;;;;;;11.93;92.96;93514.13;2120355;27;19976;-72
2022/08/11 01:28:08;;;;;;;;;;;;;;;11.98;92.39;93510.94;2123159;27;19919;-70
2022/08/11 01:29:27;;;;;;;;;;;;;;;11.91;93.17;93513.03;2123173;27;19919;-72
2022/08/11 01:30:47;;;;;;;;;;;;;;;11.94;93.16;93506.84;2120550;27;19919;-70
2022/08/11 01:31:57;;;;;;;;;;;;;;;11.81;94.39;93510.13;2122533;27;20379;-70
2022/08/11 01:32:58;;;;;;;;;;;;;;;11.83;94.06;93510.50;2123012;27;19922;-72
2022/08/11 01:34:20;;;;;;;;;;;;;;;11.68;96.27;93513.84;2123128;27;19946;-71
2022/08/11 01:35:23;;;;;;;;;;;;;;;11.70;95.80;93517.63;2119514;27;20010;-72
2022/08/11 01:37:02;;;;;;;;;;;;;;;11.72;95.60;93511.84;2122367;27;19918;-70
2022/08/11 01:38:04;;;;;;;;;;;;;;;11.81;94.70;93504.03;2096380;28;19980;-70
2022/08/11 01:39:30;;;;;;;;;;;;;;;11.74;95.28;93517.53;2096580;28;19920;-71
2022/08/11 01:40:46;;;;;;;;;;;;;;;11.83;95.35;93510.50;2094589;28;19912;-69
2022/08/11 01:45:07;;;;;;;;;;;;;;;11.71;97.07;93515.69;2121082;27;20405;-72
2022/08/11 01:46:11;;;;;;;;;;;;;;;11.73;95.96;93514.13;2123034;27;19919;-70
2022/08/11 01:47:49;;;;;;;;;;;;;;;11.73;95.97;93511.44;2119944;27;20344;-70
2022/08/11 01:48:48;;;;;;;;;;;;;;;11.68;97.24;93511.16;2121602;27;19923;-70
2022/08/11 01:50:02;;;;;;;;;;;;;;;11.60;98.03;93513.97;2119165;27;19941;-70
2022/08/11 01:51:12;;;;;;;;;;;;;;;11.64;96.84;93515.84;2122940;27;19993;-70
2022/08/11 01:52:17;;;;;;;;;;;;;;;11.49;97.54;93520.69;2122382;27;20052;-71
2022/08/11 01:53:36;;;;;;;;;;;;;;;11.48;98.27;93508.47;2118864;27;19915;-70
2022/08/11 01:54:40;;;;;;;;;;;;;;;11.48;97.59;93508.47;2122933;27;19916;-70
2022/08/11 01:55:47;;;;;;;;;;;;;;;11.51;98.01;93507.66;2122855;27;19961;-72
2022/08/11 01:56:50;;;;;;;;;;;;;;;11.47;97.61;93523.78;2118725;27;20268;-72
2022/08/11 01:58:11;;;;;;;;;;;;;;;11.48;98.06;93517.25;2121720;27;19972;-69
2022/08/11 01:59:24;;;;;;;;;;;;;;;11.46;98.80;93524.97;2122596;27;19937;-70
2022/08/11 02:00:29;;;;;;;;;;;;;;;11.41;99.27;93520.06;2119910;27;19911;-70
2022/08/11 02:01:32;;;;;;;;;;;;;;;11.41;98.76;93513.94;2122821;27;19921;-70
2022/08/11 02:02:52;;;;;;;;;;;;;;;11.39;99.44;93516.31;2122919;27;20025;-70
2022/08/11 02:04:08;;;;;;;;;;;;;;;11.28;98.91;93511.13;2121375;27;20006;-70
2022/08/11 02:05:35;;;;;;;;;;;;;;;11.34;99.82;93514.84;2122881;27;19915;-70
2022/08/11 02:06:54;;;;;;;;;;;;;;;11.27;98.84;93512.28;2090303;28;20729;-69
2022/08/11 02:08:07;;;;;;;;;;;;;;;11.30;99.70;93508.81;2119672;27;20246;-68
2022/08/11 02:09:08;;;;;;;;;;;;;;;11.29;99.52;93507.31;2122320;27;19915;-70
2022/08/11 02:11:34;;;;;;;;;;;;;;;11.07;100.00;93514.94;2120245;27;19922;-68
2022/08/11 02:12:55;;;;;;;;;;;;;;;10.97;100.00;93513.19;2122781;27;20341;-67
2022/08/11 02:14:01;;;;;;;;;;;;;;;11.02;100.00;93510.84;2119016;27;19961;-68
2022/08/11 02:15:08;;;;;;;;;;;;;;;11.10;100.00;93514.13;2122531;27;19915;-71
2022/08/11 02:16:15;;;;;;;;;;;;;;;11.12;100.00;93514.47;2122702;27;19919;-70
2022/08/11 02:17:36;;;;;;;;;;;;;;;11.05;100.00;93517.25;2122780;27;19921;-68
2022/08/11 02:23:40;;;;;;;;;;;;;;;10.84;100.00;93508.44;2121697;27;19911;-68
2022/08/11 02:24:49;;;;;;;;;;;;;;;10.81;100.00;93503.91;2121354;27;19926;-68
2022/08/11 02:25:50;;;;;;;;;;;;;;;10.91;100.00;93504.88;2119062;28;19919;-70
2022/08/11 02:27:01;;;;;;;;;;;;;;;11.03;100.00;93504.31;2122740;27;20441;-70
2022/08/11 02:28:07;;;;;;;;;;;;;;;10.91;100.00;93512.16;2122779;27;19915;-68
2022/08/11 02:29:19;;;;;;;;;;;;;;;10.84;100.00;93503.09;2122606;27;19911;-68
2022/08/11 02:30:24;;;;;;;;;;;;;;;10.93;100.00;93499.91;2120713;27;19981;-68
2022/08/11 02:33:23;;;;;;;;;;;;;;;10.64;100.00;93507.63;2119312;28;19970;-70
2022/08/11 02:34:31;;;;;;;;;;;;;;;10.74;100.00;93503.25;2119326;28;20362;-69
2022/08/11 02:35:41;;;;;;;;;;;;;;;10.75;100.00;93502.09;2121984;27;19923;-69
2022/08/11 02:36:48;;;;;;;;;;;;;;;10.70;100.00;93503.31;2122559;27;19922;-72
2022/08/11 02:38:07;;;;;;;;;;;;;;;10.70;100.00;93506.00;2118873;28;19963;-67
2022/08/11 02:39:13;;;;;;;;;;;;;;;10.73;100.00;93499.84;2122816;27;19988;-68
2022/08/11 02:40:30;;;;;;;;;;;;;;;10.74;100.00;93498.66;2122157;28;20702;-70
2022/08/11 02:43:05;;;;;;;;;;;;;;;10.60;100.00;93496.22;2120389;28;19919;-68
2022/08/11 02:44:24;;;;;;;;;;;;;;;10.55;100.00;93505.47;2122641;27;19923;-69
2022/08/11 02:45:45;;;;;;;;;;;;;;;10.53;100.00;93501.69;2119487;28;20274;-68
2022/08/11 02:46:51;;;;;;;;;;;;;;;10.52;100.00;93505.50;2122553;28;20341;-70
2022/08/11 02:49:54;;;;;;;;;;;;;;;10.37;100.00;93504.22;2122477;27;20392;-68
2022/08/11 02:51:07;;;;;;;;;;;;;;;10.45;100.00;93506.38;2116866;28;19919;-68
2022/08/11 02:52:16;;;;;;;;;;;;;;;10.45;100.00;93501.03;2122615;27;19924;-68
2022/08/11 02:53:17;;;;;;;;;;;;;;;10.45;100.00;93498.38;2118532;28;19918;-69
2022/08/11 02:54:31;;;;;;;;;;;;;;;10.37;100.00;93504.22;2122603;28;19911;-68
2022/08/11 02:55:40;;;;;;;;;;;;;;;10.46;100.00;93504.47;2122600;27;19915;-68
2022/08/11 02:56:43;;;;;;;;;;;;;;;10.37;100.00;93507.66;2120081;27;19921;-68
2022/08/11 02:58:04;;;;;;;;;;;;;;;10.34;100.00;93495.09;2122656;27;19930;-71
2022/08/11 03:00:55;;;;;;;;;;;;;;;10.48;100.00;93496.78;2103547;28;20006;-69
2022/08/11 03:02:22;;;;;;;;;;;;;;;10.39;100.00;93491.97;2118654;28;19926;-68
2022/08/11 03:03:28;;;;;;;;;;;;;;;10.31;100.00;93501.22;2112078;28;20005;-69
2022/08/11 03:04:36;;;;;;;;;;;;;;;10.28;100.00;93497.47;2122336;27;20058;-70
2022/08/11 03:05:56;;;;;;;;;;;;;;;10.16;100.00;93489.22;2122634;27;20423;-68
2022/08/11 03:07:04;;;;;;;;;;;;;;;10.23;100.00;93499.81;2119025;28;19911;-70
2022/08/11 03:08:17;;;;;;;;;;;;;;;10.25;100.00;93492.94;2122652;27;19960;-69
2022/08/11 03:09:18;;;;;;;;;;;;;;;10.25;100.00;93502.84;2119529;27;19968;-71
2022/08/11 03:10:18;;;;;;;;;;;;;;;10.24;100.00;93504.00;2124124;27;20013;-69
2022/08/11 03:17:35;;;;;;;;;;;;;;;10.12;100.00;93493.84;2119595;27;19911;-68
2022/08/11 03:18:56;;;;;;;;;;;;;;;10.07;100.00;93487.81;2122777;27;19915;-69
2022/08/11 03:19:58;;;;;;;;;;;;;;;10.14;100.00;93492.31;2121179;27;19972;-68
2022/08/11 03:21:16;;;;;;;;;;;;;;;10.02;100.00;93490.94;2124157;27;20048;-68
2022/08/11 03:22:22;;;;;;;;;;;;;;;10.03;100.00;93489.78;2120044;27;19911;-70
2022/08/11 03:23:32;;;;;;;;;;;;;;;9.79;100.00;93488.94;2122857;27;19911;-68
2022/08/11 03:24:48;;;;;;;;;;;;;;;9.83;100.00;93492.34;2123568;27;19915;-68
2022/08/11 03:26:07;;;;;;;;;;;;;;;9.88;100.00;93488.47;2120328;27;20280;-68
2022/08/11 03:27:10;;;;;;;;;;;;;;;9.94;100.00;93489.50;2123496;27;19918;-68
2022/08/11 03:28:30;;;;;;;;;;;;;;;9.91;100.00;93490.31;2123171;27;19919;-70
2022/08/11 03:29:54;;;;;;;;;;;;;;;9.94;100.00;93488.75;2121929;27;19915;-69
2022/08/11 03:31:01;;;;;;;;;;;;;;;9.96;100.00;93492.53;2121143;27;19919;-69
2022/08/11 03:32:06;;;;;;;;;;;;;;;9.92;100.00;93488.38;2123986;27;19919;-68
2022/08/11 03:34:40;;;;;;;;;;;;;;;9.84;100.00;93485.06;2115717;28;19956;-68
2022/08/11 03:35:48;;;;;;;;;;;;;;;9.91;100.00;93484.97;2123226;27;19919;-70
2022/08/11 03:36:52;;;;;;;;;;;;;;;9.85;100.00;93491.94;2120069;27;20242;-71
2022/08/11 03:37:59;;;;;;;;;;;;;;;9.66;100.00;93487.97;2124142;27;19911;-69
2022/08/11 03:39:02;;;;;;;;;;;;;;;9.67;100.00;93486.06;2123217;27;20268;-68
2022/08/11 03:41:43;;;;;;;;;;;;;;;9.75;100.00;93490.91;2119145;27;19919;-70
2022/08/11 03:43:05;;;;;;;;;;;;;;;9.76;100.00;93486.31;2124085;27;19912;-68
2022/08/11 03:44:35;;;;;;;;;;;;;;;9.66;100.00;93492.53;2122383;27;19985;-70
2022/08/11 03:45:45;;;;;;;;;;;;;;;9.59;100.00;93485.38;2089036;28;20484;-68
2022/08/11 03:47:05;;;;;;;;;;;;;;;9.64;100.00;93492.19;2090863;27;19912;-69
2022/08/11 03:48:17;;;;;;;;;;;;;;;9.63;100.00;93486.09;2123946;27;19964;-68
2022/08/11 03:49:24;;;;;;;;;;;;;;;9.65;100.00;93493.69;2119705;27;19911;-70
2022/08/11 03:50:39;;;;;;;;;;;;;;;9.81;100.00;93481.28;2123878;27;20365;-68
2022/08/11 03:51:51;;;;;;;;;;;;;;;9.76;100.00;93489.75;2124001;27;19925;-68
2022/08/11 03:53:00;;;;;;;;;;;;;;;9.68;100.00;93490.97;2120418;27;20371;-68
2022/08/11 03:54:21;;;;;;;;;;;;;;;9.57;100.00;93485.03;2123892;27;20483;-70
2022/08/11 03:55:27;;;;;;;;;;;;;;;9.66;100.00;93490.66;2122642;27;19917;-69
2022/08/11 03:56:28;;;;;;;;;;;;;;;9.58;100.00;93495.31;2123574;27;20292;-69
2022/08/11 03:57:58;;;;;;;;;;;;;;;9.53;100.00;93489.66;2123930;27;19915;-68
2022/08/11 03:59:17;;;;;;;;;;;;;;;9.53;100.00;93492.31;2121455;27;20356;-68
2022/08/11 04:00:18;;;;;;;;;;;;;;;9.49;100.00;93489.69;2119634;27;19969;-68
2022/08/11 04:01:37;;;;;;;;;;;;;;;9.41;100.00;93487.50;2123704;27;20265;-71
2022/08/11 04:02:57;;;;;;;;;;;;;;;9.33;100.00;93497.50;2123881;27;19958;-70
2022/08/11 04:04:18;;;;;;;;;;;;;;;9.42;100.00;93497.78;2121215;27;19925;-68
2022/08/11 04:05:19;;;;;;;;;;;;;;;9.49;100.00;93496.94;2088500;28;19917;-70
2022/08/11 04:06:37;;;;;;;;;;;;;;;9.52;100.00;93499.56;2116688;27;20417;-68
2022/08/11 04:08:04;;;;;;;;;;;;;;;9.59;100.00;93499.47;2123694;27;20431;-70
2022/08/11 04:09:23;;;;;;;;;;;;;;;9.57;100.00;93493.78;2122216;27;19915;-70
2022/08/11 04:10:32;;;;;;;;;;;;;;;9.46;100.00;93501.16;2120592;27;19998;-68
2022/08/11 04:11:45;;;;;;;;;;;;;;;9.43;100.00;93501.19;2121797;27;19911;-70
2022/08/11 04:13:25;;;;;;;;;;;;;;;9.50;100.00;93499.22;2123780;27;19915;-71
2022/08/11 04:16:05;;;;;;;;;;;;;;;9.49;100.00;93502.28;2091436;28;19927;-68
2022/08/11 04:17:25;;;;;;;;;;;;;;;9.52;100.00;93496.88;2097295;28;20290;-69
2022/08/11 04:18:29;;;;;;;;;;;;;;;9.56;100.00;93500.25;2094654;28;19912;-69
2022/08/11 04:19:41;;;;;;;;;;;;;;;9.40;100.00;93502.75;2097226;28;19954;-68
2022/08/11 04:21:02;;;;;;;;;;;;;;;9.41;100.00;93506.19;2123017;27;19964;-68
2022/08/11 04:22:22;;;;;;;;;;;;;;;9.41;100.00;93501.59;2109334;27;20377;-68
2022/08/11 04:23:42;;;;;;;;;;;;;;;9.34;100.00;93507.75;2120486;27;19949;-68
2022/08/11 04:24:58;;;;;;;;;;;;;;;9.31;100.00;93503.22;2123602;27;19919;-68
2022/08/11 04:26:11;;;;;;;;;;;;;;;9.26;100.00;93503.69;2121156;27;20349;-68
2022/08/11 04:27:31;;;;;;;;;;;;;;;9.35;100.00;93497.88;2118271;27;19965;-68
2022/08/11 04:28:42;;;;;;;;;;;;;;;9.49;100.00;93507.63;2120430;27;20334;-68
2022/08/11 04:30:02;;;;;;;;;;;;;;;9.45;100.00;93507.66;2123639;27;19919;-68
2022/08/11 04:31:14;;;;;;;;;;;;;;;9.42;100.00;93507.69;2121798;27;20258;-68
2022/08/11 04:32:41;;;;;;;;;;;;;;;9.38;100.00;93502.38;2122890;27;20265;-67
2022/08/11 04:34:14;;;;;;;;;;;;;;;9.45;100.00;93504.22;2123065;27;19919;-68
2022/08/11 04:35:27;;;;;;;;;;;;;;;9.50;100.00;93504.53;2088737;28;19990;-68
2022/08/11 04:38:32;;;;;;;;;;;;;;;9.54;100.00;93512.50;2123052;27;19915;-69
2022/08/11 04:39:42;;;;;;;;;;;;;;;9.39;100.00;93505.81;2121602;27;19915;-70
2022/08/11 04:40:43;;;;;;;;;;;;;;;9.35;100.00;93505.88;2123551;27;20391;-68
2022/08/11 04:43:20;;;;;;;;;;;;;;;9.48;100.00;93501.53;2123329;27;19925;-68
2022/08/11 04:44:24;;;;;;;;;;;;;;;9.47;100.00;93505.34;2119918;27;19915;-67
2022/08/11 04:45:25;;;;;;;;;;;;;;;9.39;100.00;93506.56;2123331;27;19987;-69
2022/08/11 04:46:30;;;;;;;;;;;;;;;9.62;100.00;93499.84;2120662;27;20018;-67
2022/08/11 05:02:39;;;;;;;;;;;;;;;9.95;100.00;93498.28;2121056;27;19915;-70
2022/08/11 05:05:29;;;;;;;;;;;;;;;10.02;100.00;93501.63;2122621;27;20063;-68
2022/08/11 05:05:42;;;;;;;;;;;;;;;10.13;100.00;93511.38;2114439;27;19944;-69
2022/08/11 05:07:01;;;;;;;;;;;;;;;10.12;100.00;93507.22;2123303;27;19918;-68
2022/08/11 05:08:20;;;;;;;;;;;;;;;10.12;100.00;93507.22;2120454;27;19919;-71
2022/08/11 05:09:39;;;;;;;;;;;;;;;10.24;100.00;93494.09;2119777;27;19919;-68
2022/08/11 05:10:40;;;;;;;;;;;;;;;10.26;100.00;93504.38;2123127;27;19911;-70
2022/08/11 05:11:56;;;;;;;;;;;;;;;10.22;100.00;93500.97;2123332;27;19915;-71
2022/08/11 05:27:09;;;;;;;;;;;;;;;10.23;100.00;93505.91;2120396;27;19950;-68
2022/08/11 05:34:52;;;;;;;;;;;;;;;11.51;100.00;93502.31;2121441;27;19911;-68
2022/08/11 05:36:04;;;;;;;;;;;;;;;11.80;100.00;93489.84;2086221;28;20003;-68
2022/08/11 05:37:08;;;;;;;;;;;;;;;11.90;100.00;93498.13;2121543;27;19921;-68
2022/08/11 05:57:24;;;;;;;;;;;;;;;13.30;96.42;93494.53;2122438;27;19923;-69
2022/08/11 05:58:30;;;;;;;;;;;;;;;13.44;95.21;93498.75;2119484;27;19940;-68
2022/08/11 05:59:32;;;;;;;;;;;;;;;13.53;93.45;93485.47;2122844;27;19919;-69
2022/08/11 06:00:40;;;;;;;;;;;;;;;13.57;91.69;93488.81;2122779;27;19954;-68
2022/08/11 06:01:43;;;;;;;;;;;;;;;13.66;90.68;93492.81;2121908;27;19922;-68
2022/08/11 06:02:54;;;;;;;;;;;;;;;13.68;92.13;93491.19;2122685;27;20349;-68
2022/08/11 06:04:14;;;;;;;;;;;;;;;13.82;91.53;93490.03;2119436;27;19915;-69
2022/08/11 06:05:15;;;;;;;;;;;;;;;13.80;96.49;93487.03;2122651;27;19918;-68
2022/08/11 06:06:16;;;;;;;;;;;;;;;13.87;92.73;93486.81;2122045;27;19915;-68
2022/08/11 06:07:17;;;;;;;;;;;;;;;13.90;91.35;93488.66;2118702;27;20007;-71
2022/08/11 06:08:26;;;;;;;;;;;;;;;14.11;89.08;93481.94;2122773;27;20333;-69
2022/08/11 06:09:34;;;;;;;;;;;;;;;14.16;88.02;93489.44;2122844;27;20318;-70
2022/08/11 06:10:36;;;;;;;;;;;;;;;14.21;86.58;93486.22;2122738;27;19918;-69
2022/08/11 06:11:38;;;;;;;;;;;;;;;14.17;89.03;93487.50;2121903;27;19923;-69
2022/08/11 06:12:41;;;;;;;;;;;;;;;14.18;88.06;93487.09;2122844;27;19915;-68
2022/08/11 06:13:45;;;;;;;;;;;;;;;14.19;87.96;93493.22;2122684;27;19961;-68
2022/08/11 06:14:48;;;;;;;;;;;;;;;14.18;88.63;93486.31;2122708;27;19922;-68
2022/08/11 06:15:54;;;;;;;;;;;;;;;14.22;89.28;93489.66;2117080;27;19915;-69
2022/08/11 06:16:58;;;;;;;;;;;;;;;14.24;89.51;93490.75;2119561;27;19927;-70
2022/08/11 06:18:02;;;;;;;;;;;;;;;14.42;85.04;93484.84;2118931;27;19911;-71
2022/08/11 06:19:04;;;;;;;;;;;;;;;14.49;86.49;93495.41;2122704;27;19915;-68
2022/08/11 06:20:11;;;;;;;;;;;;;;;14.54;85.12;93486.06;2122343;27;19918;-69
2022/08/11 06:21:13;;;;;;;;;;;;;;;14.56;85.85;93487.13;2122674;27;19922;-71
2022/08/11 06:22:19;;;;;;;;;;;;;;;14.58;84.45;93486.69;2122568;27;19916;-69
2022/08/11 06:23:24;;;;;;;;;;;;;;;14.64;83.72;93493.03;2119009;27;19925;-71
2022/08/11 06:24:27;;;;;;;;;;;;;;;14.76;82.19;93488.84;2122731;27;19918;-70
2022/08/11 06:25:34;;;;;;;;;;;;;;;14.71;84.89;93486.69;2121873;27;19911;-71
2022/08/11 06:26:36;;;;;;;;;;;;;;;14.98;80.61;93484.25;2122134;27;19976;-70
2022/08/11 06:27:39;;;;;;;;;;;;;;;15.09;80.33;93491.97;2122100;27;19923;-68
2022/08/11 06:28:43;;;;;;;;;;;;;;;15.11;79.49;93487.69;2122491;27;19915;-71
2022/08/11 06:29:51;;;;;;;;;;;;;;;15.01;83.66;93488.00;2122026;27;19917;-69
2022/08/11 06:30:52;;;;;;;;;;;;;;;14.94;85.31;93483.63;2118716;28;19957;-72
2022/08/11 06:31:55;;;;;;;;;;;;;;;15.00;84.11;93487.25;2120641;28;19961;-69
2022/08/11 06:32:56;;;;;;;;;;;;;;;15.14;80.95;93483.34;2119268;28;19911;-70
2022/08/11 06:34:00;;;;;;;;;;;;;;;15.15;79.90;93482.19;2122442;27;19915;-69
2022/08/11 06:35:20;;;;;;;;;;;;;;;15.27;80.39;93483.31;2122091;27;20657;-70
2022/08/11 06:36:37;;;;;;;;;;;;;;;15.08;83.77;93491.22;2118880;28;19915;-69
2022/08/11 06:37:44;;;;;;;;;;;;;;;15.33;80.83;93484.28;2120862;28;19920;-70
2022/08/11 06:38:47;;;;;;;;;;;;;;;15.39;82.50;93479.06;2121475;27;20314;-69
2022/08/11 06:40:06;;;;;;;;;;;;;;;15.57;77.09;93476.50;2120328;28;20071;-69
2022/08/11 06:41:31;;;;;;;;;;;;;;;15.68;78.47;93481.56;2120970;28;19924;-69
2022/08/11 06:42:53;;;;;;;;;;;;;;;15.68;78.75;93479.63;2120624;28;19915;-69
2022/08/11 06:43:57;;;;;;;;;;;;;;;15.68;78.61;93481.56;2119074;27;20001;-68
2022/08/11 06:45:07;;;;;;;;;;;;;;;15.68;76.72;93481.56;2124523;27;19911;-68
2022/08/11 06:46:09;;;;;;;;;;;;;;;15.75;80.05;93478.59;2124048;27;20338;-69
2022/08/11 06:47:12;;;;;;;;;;;;;;;15.79;78.33;93476.53;2123582;27;20393;-69
2022/08/11 06:48:18;;;;;;;;;;;;;;;15.80;78.69;93476.13;2123673;27;19934;-68
2022/08/11 06:52:01;;;;;;;;;;;;;;;16.00;80.15;93475.75;2117790;27;19968;-68
2022/08/11 06:53:04;;;;;;;;;;;;;;;15.98;79.83;93470.06;2124472;27;19915;-70
2022/08/11 06:54:11;;;;;;;;;;;;;;;16.10;76.76;93477.31;2124307;27;20280;-69
2022/08/11 07:00:26;;;;;;;;;;;;;;;16.19;73.78;93478.56;2122587;27;19922;-71
2022/08/11 07:00:34;;;;;;;;;;;;;;;16.52;74.99;93473.44;2122833;27;19915;-68
2022/08/11 07:01:57;;;;;;;;;;;;;;;16.53;76.19;93472.25;2124448;27;19950;-69
2022/08/11 07:03:10;;;;;;;;;;;;;;;16.48;78.36;93470.88;2124507;27;19915;-68
2022/08/11 07:04:12;;;;;;;;;;;;;;;16.45;74.90;93471.00;2124252;27;20625;-68
2022/08/11 07:05:19;;;;;;;;;;;;;;;16.57;77.25;93470.91;2123677;27;19919;-68
2022/08/11 07:06:28;;;;;;;;;;;;;;;16.64;76.40;93469.91;2120472;27;19972;-68
2022/08/11 07:15:47;;;;;;;;;;;;;;;17.23;72.03;93467.16;2120822;27;19923;-70
2022/08/11 07:16:49;;;;;;;;;;;;;;;17.26;69.79;93472.44;2118297;27;19957;-70
2022/08/11 07:28:54;;;;;;;;;;;;;;;17.29;71.27;93470.75;2123485;27;20006;-68
2022/08/11 07:28:55;;;;;;;;;;;;;;;17.92;68.65;93463.09;2119317;27;19915;-69
2022/08/11 07:29:56;;;;;;;;;;;;;;;18.08;64.01;93466.19;2121265;27;19919;-68
2022/08/11 07:31:02;;;;;;;;;;;;;;;18.09;67.43;93467.72;2124130;27;19911;-70
2022/08/11 07:32:11;;;;;;;;;;;;;;;18.29;62.99;93467.19;2123316;27;20272;-69
2022/08/11 07:33:18;;;;;;;;;;;;;;;18.38;66.18;93471.81;2124058;27;19923;-70
2022/08/11 07:34:23;;;;;;;;;;;;;;;18.48;64.32;93469.81;2124116;27;19998;-69
2022/08/11 07:35:32;;;;;;;;;;;;;;;18.49;62.52;93471.34;2124035;27;20279;-69
2022/08/11 07:36:36;;;;;;;;;;;;;;;18.54;64.28;93471.47;2124070;27;20268;-69
2022/08/11 07:37:40;;;;;;;;;;;;;;;18.49;64.24;93474.06;2123237;27;19945;-68
2022/08/11 07:38:43;;;;;;;;;;;;;;;18.59;64.42;93473.53;2124055;27;19967;-69
2022/08/11 07:39:45;;;;;;;;;;;;;;;18.57;61.78;93475.97;2123921;27;19919;-68
2022/08/11 07:40:46;;;;;;;;;;;;;;;18.68;61.03;93467.34;2123904;27;19907;-69
2022/08/11 07:41:49;;;;;;;;;;;;;;;18.72;60.78;93464.50;2118015;27;19918;-71
2022/08/11 07:42:51;;;;;;;;;;;;;;;18.66;61.58;93464.34;2120141;27;21512;-68
2022/08/11 07:44:07;;;;;;;;;;;;;;;18.75;59.71;93469.00;2121748;27;19919;-68
2022/08/11 07:53:10;;;;;;;;;;;;;;;19.04;61.67;93471.09;2121004;27;19919;-69
2022/08/11 07:54:11;;;;;;;;;;;;;;;19.11;60.46;93473.47;2123008;27;19927;-69
2022/08/11 07:55:13;;;;;;;;;;;;;;;19.28;59.83;93468.38;2123443;27;19911;-72
2022/08/11 07:56:15;;;;;;;;;;;;;;;19.31;58.55;93470.88;2121143;27;19916;-69
2022/08/11 08:18:42;;;;;;;;;;;;;;;20.34;57.74;93466.81;2123014;27;20353;-69
2022/08/11 08:19:46;;;;;;;;;;;;;;;20.43;55.05;93466.72;2122366;27;19972;-69
2022/08/11 08:20:53;;;;;;;;;;;;;;;20.35;52.90;93474.50;2119218;27;19912;-71
2022/08/11 08:21:54;;;;;;;;;;;;;;;20.29;55.42;93470.94;2123643;27;19957;-71
2022/08/11 08:22:57;;;;;;;;;;;;;;;20.28;54.44;93471.41;2122827;27;20318;-70